Time;durP1;ratioP1;P1;durP2;ratioP2;P2;SDS_P1;SDS_P2;PMS_P1;PMS_P2;Temp;Humidity;BMP_temperature;BMP_pressure;BME280_temperature;BME280_humidity;BME280_pressure;Samples;Min_cycle;Max_cycle;Signal;HPM_P1;HPM_P2
2021/09/18 05:25:13;;;;;;;28.97;26.67;;;;;;;;;;6196299;22;20360;-97
2021/09/18 05:27:41;;;;;;;26.87;24.90;;;;;;;;;;4975249;28;20452;-95
2021/09/18 05:30:09;;;;;;;26.90;25.00;;;;;;;;;;4976411;28;20465;-96
2021/09/18 05:38:47;;;;;;;28.87;26.43;;;;;;;;;;5006306;23;20553;-95
2021/09/18 05:41:16;;;;;;;26.53;24.50;;;;;;;;;;4995278;28;20493;-96
2021/09/18 05:43:43;;;;;;;25.20;23.40;;;;;;;;;;4995278;28;20428;-93
2021/09/18 05:46:10;;;;;;;25.13;23.40;;;;;;;;;;4995591;28;20423;-94
2021/09/18 05:48:38;;;;;;;24.57;22.80;;;;;;;;;;4995147;28;20419;-93
2021/09/18 05:51:05;;;;;;;25.73;23.80;;;;;;;;;;4995366;28;20452;-94
2021/09/18 05:53:32;;;;;;;25.33;23.57;;;;;;;;;;4995534;28;20416;-93
2021/09/18 05:56:00;;;;;;;26.60;24.63;;;;;;;;;;4995600;28;20495;-93
2021/09/18 05:58:29;;;;;;;27.30;25.30;;;;;;;;;;4995047;28;20415;-93
2021/09/18 06:00:56;;;;;;;27.07;25.17;;;;;;;;;;4994868;28;20470;-93
2021/09/18 06:03:23;;;;;;;27.13;25.23;;;;;;;;;;4995295;28;20412;-93
2021/09/18 06:05:51;;;;;;;27.33;25.43;;;;;;;;;;4995320;28;20442;-93
2021/09/18 06:08:18;;;;;;;27.60;25.67;;;;;;;;;;4994961;28;20441;-91
2021/09/18 06:10:46;;;;;;;27.37;25.47;;;;;;;;;;4994789;28;20426;-92
2021/09/18 06:13:13;;;;;;;27.27;25.27;;;;;;;;;;4994868;28;20441;-91
2021/09/18 06:15:42;;;;;;;27.90;25.70;;;;;;;;;;4995366;28;20427;-91
2021/09/18 06:18:09;;;;;;;27.70;25.70;;;;;;;;;;4994903;28;20457;-92
2021/09/18 06:20:37;;;;;;;27.40;25.30;;;;;;;;;;4994700;28;20458;-92
2021/09/18 06:23:04;;;;;;;28.13;25.90;;;;;;;;;;5012122;28;20483;-91
2021/09/18 06:25:32;;;;;;;27.73;25.63;;;;;;;;;;5014245;28;20527;-89
2021/09/18 06:27:59;;;;;;;26.40;24.40;;;;;;;;;;5015580;28;20438;-91
2021/09/18 06:30:26;;;;;;;27.03;24.80;;;;;;;;;;5014624;28;20445;-91
2021/09/18 06:32:55;;;;;;;25.70;23.87;;;;;;;;;;5015787;28;20429;-91
2021/09/18 06:35:22;;;;;;;26.33;24.30;;;;;;;;;;5018778;28;20833;-90
2021/09/18 06:37:50;;;;;;;26.17;24.20;;;;;;;;;;5018750;28;20434;-90
2021/09/18 06:40:19;;;;;;;26.47;24.47;;;;;;;;;;5035447;28;20465;-90
2021/09/18 06:42:46;;;;;;;26.73;24.90;;;;;;;;;;5038587;28;20790;-90
2021/09/18 06:45:15;;;;;;;26.63;24.73;;;;;;;;;;5037899;28;20447;-90
2021/09/18 06:47:42;;;;;;;25.47;23.57;;;;;;;;;;5038219;28;20443;-90
2021/09/18 06:50:12;;;;;;;25.87;23.93;;;;;;;;;;5038023;28;20413;-90
2021/09/18 06:52:40;;;;;;;26.07;24.07;;;;;;;;;;5038058;28;20426;-90
2021/09/18 06:55:08;;;;;;;26.43;24.53;;;;;;;;;;5037832;28;20437;-90
2021/09/18 06:57:38;;;;;;;26.73;24.80;;;;;;;;;;5038008;28;20502;-91
2021/09/18 07:00:06;;;;;;;25.73;23.97;;;;;;;;;;5037947;28;20439;-90
2021/09/18 07:02:34;;;;;;;24.73;22.83;;;;;;;;;;5037757;28;20802;-90
2021/09/18 07:05:01;;;;;;;25.77;23.80;;;;;;;;;;5038241;28;20426;-90
2021/09/18 07:07:30;;;;;;;24.27;22.10;;;;;;;;;;5020439;28;20529;-92
2021/09/18 07:09:59;;;;;;;24.13;22.30;;;;;;;;;;5037689;28;20447;-92
2021/09/18 07:12:27;;;;;;;22.10;20.50;;;;;;;;;;5037456;28;21001;-92
2021/09/18 07:14:55;;;;;;;17.47;16.50;;;;;;;;;;5037402;28;20435;-92
2021/09/18 07:17:22;;;;;;;16.10;15.30;;;;;;;;;;5037974;28;20427;-91
2021/09/18 07:19:50;;;;;;;16.00;15.20;;;;;;;;;;5037703;28;20438;-91
2021/09/18 07:22:17;;;;;;;15.47;14.77;;;;;;;;;;5037051;28;20568;-92
2021/09/18 07:24:46;;;;;;;16.13;15.43;;;;;;;;;;5038188;28;20451;-91
2021/09/18 07:27:13;;;;;;;16.27;15.37;;;;;;;;;;5037191;28;20447;-92
2021/09/18 07:29:40;;;;;;;16.10;15.30;;;;;;;;;;5037278;28;20436;-95
2021/09/18 07:32:08;;;;;;;16.13;15.30;;;;;;;;;;5037374;28;20426;-90
2021/09/18 07:34:35;;;;;;;16.70;15.80;;;;;;;;;;5037448;28;20403;-87
2021/09/18 07:37:03;;;;;;;16.50;15.80;;;;;;;;;;5037707;28;20476;-87
2021/09/18 07:39:31;;;;;;;16.20;15.50;;;;;;;;;;5036864;28;20494;-86
2021/09/18 07:42:00;;;;;;;16.67;15.87;;;;;;;;;;5036636;28;20521;-88
2021/09/18 07:44:27;;;;;;;16.60;15.80;;;;;;;;;;5036140;28;20442;-87
2021/09/18 07:46:54;;;;;;;16.83;16.03;;;;;;;;;;5019625;28;20414;-86
2021/09/18 07:49:22;;;;;;;16.93;16.13;;;;;;;;;;5036908;28;20440;-87
2021/09/18 07:51:49;;;;;;;17.50;16.70;;;;;;;;;;5036656;28;20412;-88
2021/09/18 07:54:16;;;;;;;17.47;16.60;;;;;;;;;;5036924;28;20769;-86
2021/09/18 07:56:44;;;;;;;16.83;16.03;;;;;;;;;;5036763;28;20447;-87
2021/09/18 07:59:13;;;;;;;18.00;16.80;;;;;;;;;;5036593;28;20436;-88
2021/09/18 08:01:40;;;;;;;17.43;16.63;;;;;;;;;;5036404;28;20477;-89
2021/09/18 08:04:08;;;;;;;17.87;17.07;;;;;;;;;;5036495;28;20426;-87
2021/09/18 08:06:36;;;;;;;17.67;16.77;;;;;;;;;;5036569;28;20423;-88
2021/09/18 08:09:05;;;;;;;18.27;17.17;;;;;;;;;;5036465;28;20422;-86
2021/09/18 08:11:34;;;;;;;16.97;16.20;;;;;;;;;;5036100;28;20479;-87
2021/09/18 08:14:02;;;;;;;17.27;16.57;;;;;;;;;;5036371;28;20451;-88
2021/09/18 08:16:31;;;;;;;16.80;16.00;;;;;;;;;;5036442;28;20443;-88
2021/09/18 08:18:59;;;;;;;17.47;16.67;;;;;;;;;;5036332;28;20451;-91
2021/09/18 08:21:26;;;;;;;16.83;15.93;;;;;;;;;;5036555;28;20466;-89
2021/09/18 08:23:54;;;;;;;17.73;16.63;;;;;;;;;;5036255;28;20434;-89
2021/09/18 08:26:27;;;;;;;17.40;16.60;;;;;;;;;;5036399;28;20448;-92
2021/09/18 08:28:54;;;;;;;17.63;16.40;;;;;;;;;;5035946;28;20451;-88
2021/09/18 08:31:22;;;;;;;17.80;16.70;;;;;;;;;;5035847;28;20463;-89
2021/09/18 08:33:51;;;;;;;17.70;16.60;;;;;;;;;;5036166;28;20907;-89
2021/09/18 08:36:18;;;;;;;17.37;16.47;;;;;;;;;;5036199;28;20433;-88
2021/09/18 08:38:46;;;;;;;18.37;17.50;;;;;;;;;;5035582;28;20499;-87
2021/09/18 08:41:14;;;;;;;17.60;16.80;;;;;;;;;;5035242;28;20825;-84
2021/09/18 08:43:41;;;;;;;17.50;16.50;;;;;;;;;;5035855;28;20431;-84
2021/09/18 08:46:09;;;;;;;17.30;16.50;;;;;;;;;;5037645;28;20410;-96
2021/09/18 08:48:39;;;;;;;17.93;17.03;;;;;;;;;;5036525;28;20419;-93
2021/09/18 08:51:09;;;;;;;17.40;16.50;;;;;;;;;;5036148;28;20943;-94
2021/09/18 08:53:36;;;;;;;18.03;16.90;;;;;;;;;;5036314;28;20530;-90
2021/09/18 08:56:04;;;;;;;18.47;16.90;;;;;;;;;;5034533;28;20456;-91
2021/09/18 08:58:32;;;;;;;17.33;16.50;;;;;;;;;;5035205;28;20446;-89
2021/09/18 09:01:02;;;;;;;17.40;16.33;;;;;;;;;;5035560;28;20450;-88
2021/09/18 09:03:30;;;;;;;17.40;16.60;;;;;;;;;;5035851;28;20451;-89
2021/09/18 09:05:59;;;;;;;17.50;16.60;;;;;;;;;;5035560;28;20451;-89
2021/09/18 09:08:28;;;;;;;17.57;16.67;;;;;;;;;;5035626;28;20450;-89
2021/09/18 09:10:56;;;;;;;17.07;16.07;;;;;;;;;;5035603;28;20448;-90
2021/09/18 09:13:24;;;;;;;17.17;16.27;;;;;;;;;;5035018;28;20440;-89
2021/09/18 09:15:52;;;;;;;17.53;16.50;;;;;;;;;;5035384;28;20402;-90
2021/09/18 09:18:20;;;;;;;16.77;15.97;;;;;;;;;;5035360;28;20508;-89
2021/09/18 09:20:49;;;;;;;16.93;16.10;;;;;;;;;;5034976;28;20442;-89
2021/09/18 09:23:17;;;;;;;17.73;16.73;;;;;;;;;;5034963;28;20487;-89
2021/09/18 09:25:49;;;;;;;17.17;16.37;;;;;;;;;;5034825;28;20447;-89
2021/09/18 09:28:28;;;;;;;16.83;16.03;;;;;;;;;;5035072;28;20439;-89
2021/09/18 09:31:01;;;;;;;17.00;16.20;;;;;;;;;;5035075;28;20524;-89
2021/09/18 09:33:29;;;;;;;17.03;16.00;;;;;;;;;;5034792;28;20451;-90
2021/09/18 09:35:57;;;;;;;17.70;16.70;;;;;;;;;;5034754;28;20446;-90
2021/09/18 09:38:24;;;;;;;17.67;16.60;;;;;;;;;;5034690;28;20439;-90
2021/09/18 09:40:53;;;;;;;17.13;16.33;;;;;;;;;;4995788;28;20457;-89
2021/09/18 09:43:21;;;;;;;17.77;16.70;;;;;;;;;;4995207;28;20474;-89
2021/09/18 09:45:49;;;;;;;17.77;16.87;;;;;;;;;;4995403;28;20519;-90
2021/09/18 09:48:17;;;;;;;18.03;17.00;;;;;;;;;;4996333;28;20786;-89
2021/09/18 09:50:56;;;;;;;18.00;17.10;;;;;;;;;;4995023;28;20957;-90
2021/09/18 09:53:24;;;;;;;17.77;16.97;;;;;;;;;;4995383;28;20424;-88
2021/09/18 09:55:53;;;;;;;17.23;16.43;;;;;;;;;;4995122;28;20489;-89
2021/09/18 09:58:21;;;;;;;18.03;17.20;;;;;;;;;;4994213;28;20447;-89
2021/09/18 10:00:51;;;;;;;17.67;16.87;;;;;;;;;;4995653;28;20438;-88
2021/09/18 10:03:21;;;;;;;18.27;17.37;;;;;;;;;;4994651;28;20468;-89
2021/09/18 10:05:48;;;;;;;18.30;17.40;;;;;;;;;;4994103;28;20449;-89
2021/09/18 10:08:16;;;;;;;18.33;17.27;;;;;;;;;;4994583;28;20409;-90
2021/09/18 10:10:43;;;;;;;18.93;17.87;;;;;;;;;;4994855;28;20451;-89
2021/09/18 10:13:13;;;;;;;17.57;16.63;;;;;;;;;;4994993;28;20452;-89
2021/09/18 10:15:41;;;;;;;18.40;17.50;;;;;;;;;;4994819;28;20424;-89
2021/09/18 10:18:09;;;;;;;17.80;16.80;;;;;;;;;;4995047;28;20529;-89
2021/09/18 10:23:22;;;;;;;17.17;16.33;;;;;;;;;;4994815;28;20496;-88
2021/09/18 10:25:51;;;;;;;17.13;16.27;;;;;;;;;;4994986;28;20441;-89
2021/09/18 10:28:21;;;;;;;17.80;16.80;;;;;;;;;;4994934;28;20420;-90
2021/09/18 10:30:51;;;;;;;17.93;17.00;;;;;;;;;;4994863;28;20436;-88
2021/09/18 10:33:32;;;;;;;17.37;16.53;;;;;;;;;;4994912;28;20417;-89
2021/09/18 10:36:01;;;;;;;17.70;16.60;;;;;;;;;;4994796;28;20425;-90
2021/09/18 10:38:29;;;;;;;17.67;16.67;;;;;;;;;;4995383;28;20449;-89
2021/09/18 10:40:58;;;;;;;17.43;16.63;;;;;;;;;;5034301;28;20501;-89
2021/09/18 10:43:27;;;;;;;17.03;16.23;;;;;;;;;;5016544;28;20861;-89
2021/09/18 10:45:55;;;;;;;16.90;16.10;;;;;;;;;;5048371;28;20440;-96
2021/09/18 10:48:45;;;;;;;17.30;16.50;;;;;;;;;;5001574;28;20478;-89
2021/09/18 10:51:27;;;;;;;17.00;16.20;;;;;;;;;;5028673;28;20917;-90
2021/09/18 10:54:05;;;;;;;17.10;16.30;;;;;;;;;;5034012;28;20453;-87
2021/09/18 10:56:47;;;;;;;17.23;16.33;;;;;;;;;;5034323;28;20440;-89
2021/09/18 10:59:16;;;;;;;17.87;16.97;;;;;;;;;;5019751;28;20463;-91
2021/09/18 11:01:44;;;;;;;17.77;16.77;;;;;;;;;;5033828;28;20440;-90
2021/09/18 11:04:38;;;;;;;17.80;17.00;;;;;;;;;;5034415;28;20439;-90
2021/09/18 11:07:06;;;;;;;18.00;17.20;;;;;;;;;;5033741;28;20410;-90
2021/09/18 11:09:49;;;;;;;17.30;16.60;;;;;;;;;;5016152;28;20445;-90
2021/09/18 11:12:17;;;;;;;17.90;17.00;;;;;;;;;;5031727;28;20948;-90
2021/09/18 11:15:01;;;;;;;17.73;16.90;;;;;;;;;;5033895;28;20445;-90
2021/09/18 11:17:31;;;;;;;17.60;16.80;;;;;;;;;;5034207;28;20485;-90
2021/09/18 11:20:12;;;;;;;17.00;16.27;;;;;;;;;;5036966;28;20411;-90
2021/09/18 11:22:40;;;;;;;18.07;17.10;;;;;;;;;;5037347;28;20500;-90
2021/09/18 11:25:26;;;;;;;18.23;17.33;;;;;;;;;;5037498;28;20434;-91
2021/09/18 11:28:01;;;;;;;18.00;17.10;;;;;;;;;;5037471;28;20436;-90
2021/09/18 11:30:40;;;;;;;17.93;16.93;;;;;;;;;;5037070;28;20440;-89
2021/09/18 11:33:08;;;;;;;18.20;17.20;;;;;;;;;;5038392;28;20442;-90
2021/09/18 11:35:35;;;;;;;17.73;16.83;;;;;;;;;;5037401;28;20436;-91
2021/09/18 11:38:04;;;;;;;17.40;16.60;;;;;;;;;;5037455;28;20410;-90
2021/09/18 11:40:33;;;;;;;17.47;16.57;;;;;;;;;;5036984;28;20492;-90
2021/09/18 11:43:00;;;;;;;18.27;17.37;;;;;;;;;;5037095;28;20952;-90
2021/09/18 11:45:29;;;;;;;17.90;16.90;;;;;;;;;;5037170;28;20414;-90
2021/09/18 11:47:59;;;;;;;17.20;16.40;;;;;;;;;;5037136;28;20416;-90
2021/09/18 11:50:27;;;;;;;18.10;17.00;;;;;;;;;;5037368;28;20465;-90
2021/09/18 11:52:56;;;;;;;17.93;17.03;;;;;;;;;;5037204;28;20415;-90
2021/09/18 11:55:28;;;;;;;18.13;17.13;;;;;;;;;;5036325;28;20461;-89
2021/09/18 11:58:06;;;;;;;18.00;17.10;;;;;;;;;;5037132;28;20423;-89
2021/09/18 12:00:34;;;;;;;18.17;17.10;;;;;;;;;;5019134;28;20426;-89
2021/09/18 12:03:03;;;;;;;17.97;17.07;;;;;;;;;;5036472;28;20986;-89
2021/09/18 12:05:31;;;;;;;18.00;17.20;;;;;;;;;;5036515;28;20440;-90
2021/09/18 12:07:59;;;;;;;18.00;17.20;;;;;;;;;;5037067;28;20438;-89
2021/09/18 12:10:26;;;;;;;19.20;18.30;;;;;;;;;;5037050;28;20438;-89
2021/09/18 12:12:58;;;;;;;18.70;17.80;;;;;;;;;;5036489;28;20458;-89
2021/09/18 12:15:30;;;;;;;18.80;17.90;;;;;;;;;;5019099;28;20899;-90
2021/09/18 12:17:57;;;;;;;18.17;17.27;;;;;;;;;;5035689;28;20441;-90
2021/09/18 12:20:26;;;;;;;17.60;16.80;;;;;;;;;;5036413;28;20437;-88
2021/09/18 12:22:53;;;;;;;17.80;17.00;;;;;;;;;;5036056;28;20458;-89
2021/09/18 12:25:25;;;;;;;18.00;17.00;;;;;;;;;;5036390;28;20452;-90
2021/09/18 12:27:56;;;;;;;17.60;16.80;;;;;;;;;;5036012;28;20477;-89
2021/09/18 12:30:26;;;;;;;18.77;17.87;;;;;;;;;;5035791;28;20501;-90
2021/09/18 12:33:03;;;;;;;17.93;17.03;;;;;;;;;;5036276;28;20460;-89
2021/09/18 12:35:39;;;;;;;17.30;16.50;;;;;;;;;;5018922;28;20443;-90
2021/09/18 12:38:06;;;;;;;18.30;17.40;;;;;;;;;;5036170;28;20460;-90
2021/09/18 12:40:39;;;;;;;17.37;16.57;;;;;;;;;;5035707;28;20489;-90
2021/09/18 12:43:06;;;;;;;18.33;17.43;;;;;;;;;;5018447;28;20453;-90
2021/09/18 12:45:35;;;;;;;17.43;16.63;;;;;;;;;;5035591;28;20411;-89
2021/09/18 12:48:12;;;;;;;18.67;17.50;;;;;;;;;;5035632;28;20417;-90
2021/09/18 12:50:57;;;;;;;17.77;16.90;;;;;;;;;;5035982;28;20765;-90
2021/09/18 12:53:25;;;;;;;18.63;17.63;;;;;;;;;;5035796;28;20417;-90
2021/09/18 12:56:24;;;;;;;19.20;18.27;;;;;;;;;;5035594;28;20550;-89
2021/09/18 12:58:53;;;;;;;17.60;16.70;;;;;;;;;;5035647;28;20483;-90
2021/09/18 13:01:21;;;;;;;18.70;17.80;;;;;;;;;;5035822;28;20416;-90
2021/09/18 13:04:00;;;;;;;18.07;17.27;;;;;;;;;;5035210;28;20484;-90
2021/09/18 13:06:29;;;;;;;19.80;18.80;;;;;;;;;;5035584;28;20440;-90
2021/09/18 13:09:01;;;;;;;18.70;17.80;;;;;;;;;;5035332;28;20435;-89
2021/09/18 13:11:29;;;;;;;18.13;17.23;;;;;;;;;;5017831;28;20453;-91
2021/09/18 13:14:08;;;;;;;17.90;17.00;;;;;;;;;;5035195;28;20445;-91
2021/09/18 13:16:35;;;;;;;19.50;18.50;;;;;;;;;;5035229;28;20441;-90
2021/09/18 13:19:07;;;;;;;20.57;19.20;;;;;;;;;;5035266;28;20884;-90
2021/09/18 13:21:36;;;;;;;21.90;20.70;;;;;;;;;;5035205;28;20543;-90
2021/09/18 13:24:04;;;;;;;19.83;18.73;;;;;;;;;;5034820;28;20498;-90
2021/09/18 13:26:31;;;;;;;18.57;17.77;;;;;;;;;;5035080;28;20482;-91
2021/09/18 13:29:01;;;;;;;17.70;16.90;;;;;;;;;;5035196;28;20445;-90
2021/09/18 13:31:29;;;;;;;19.80;18.80;;;;;;;;;;5034826;28;20431;-92
2021/09/18 13:33:56;;;;;;;18.30;17.40;;;;;;;;;;5035346;28;20460;-90
2021/09/18 13:36:24;;;;;;;18.57;17.67;;;;;;;;;;5035105;28;20422;-91
2021/09/18 13:38:54;;;;;;;18.57;17.67;;;;;;;;;;5034711;28;20478;-91
2021/09/18 13:41:22;;;;;;;18.90;17.97;;;;;;;;;;5034377;28;20784;-89
2021/09/18 13:43:50;;;;;;;19.20;18.30;;;;;;;;;;5034808;28;20486;-91
2021/09/18 13:46:17;;;;;;;19.40;18.40;;;;;;;;;;5035041;28;20442;-89
2021/09/18 13:48:44;;;;;;;18.70;17.70;;;;;;;;;;5017687;28;20431;-90
2021/09/18 13:51:12;;;;;;;18.77;17.77;;;;;;;;;;5034698;28;20440;-90
2021/09/18 13:53:40;;;;;;;18.43;17.53;;;;;;;;;;5034509;28;20443;-90
2021/09/18 13:56:09;;;;;;;19.73;18.73;;;;;;;;;;5034224;28;20442;-91
2021/09/18 13:58:37;;;;;;;18.60;17.70;;;;;;;;;;5034632;28;20823;-90
2021/09/18 14:01:05;;;;;;;18.70;17.80;;;;;;;;;;5034396;28;20442;-91
2021/09/18 14:03:34;;;;;;;18.00;17.10;;;;;;;;;;5034251;28;20491;-90
2021/09/18 14:06:01;;;;;;;18.40;17.50;;;;;;;;;;5034293;28;20416;-90
2021/09/18 14:08:29;;;;;;;18.67;17.83;;;;;;;;;;5034337;28;20450;-90
2021/09/18 14:10:56;;;;;;;18.33;17.53;;;;;;;;;;5034240;28;20462;-91
2021/09/18 14:13:25;;;;;;;19.30;18.10;;;;;;;;;;5034267;28;20428;-90
2021/09/18 14:15:53;;;;;;;18.30;17.40;;;;;;;;;;5034234;28;20454;-90
2021/09/18 14:18:21;;;;;;;18.27;17.37;;;;;;;;;;5034407;28;20447;-89
2021/09/18 14:20:48;;;;;;;21.03;19.43;;;;;;;;;;5034259;28;20474;-90
2021/09/18 14:23:15;;;;;;;19.10;18.20;;;;;;;;;;5034378;28;20473;-90
2021/09/18 14:25:43;;;;;;;18.90;18.00;;;;;;;;;;5034752;28;20444;-90
2021/09/18 14:28:11;;;;;;;18.40;17.50;;;;;;;;;;5034060;28;20476;-91
2021/09/18 14:30:40;;;;;;;18.80;17.90;;;;;;;;;;5034376;28;20814;-90
2021/09/18 14:33:07;;;;;;;18.80;17.90;;;;;;;;;;5033977;28;20460;-89
2021/09/18 14:35:34;;;;;;;19.53;18.53;;;;;;;;;;5034199;28;20438;-90
2021/09/18 14:38:02;;;;;;;19.60;18.50;;;;;;;;;;5034437;28;20444;-90
2021/09/18 14:40:30;;;;;;;19.80;18.80;;;;;;;;;;5033813;28;20480;-90
2021/09/18 14:42:57;;;;;;;19.17;18.20;;;;;;;;;;5034223;28;20795;-89
2021/09/18 14:45:25;;;;;;;20.00;19.00;;;;;;;;;;5034140;28;20445;-89
2021/09/18 14:47:54;;;;;;;19.60;18.60;;;;;;;;;;5034851;28;20423;-90
2021/09/18 14:50:21;;;;;;;19.13;18.23;;;;;;;;;;5033956;28;20419;-89
2021/09/18 14:52:48;;;;;;;21.30;20.10;;;;;;;;;;5034531;28;20752;-90
2021/09/18 14:55:16;;;;;;;19.90;18.90;;;;;;;;;;5037380;28;20443;-90
2021/09/18 14:57:43;;;;;;;19.97;18.87;;;;;;;;;;5037584;28;20412;-91
2021/09/18 15:00:11;;;;;;;20.03;18.83;;;;;;;;;;5038216;28;20444;-90
2021/09/18 15:02:39;;;;;;;19.50;18.50;;;;;;;;;;5037675;28;20407;-92
2021/09/18 15:05:09;;;;;;;19.43;18.50;;;;;;;;;;5038028;28;20411;-92
2021/09/18 15:07:37;;;;;;;19.30;18.30;;;;;;;;;;5037857;28;20436;-91
2021/09/18 15:10:04;;;;;;;19.63;18.73;;;;;;;;;;5037951;28;20416;-91
2021/09/18 15:12:32;;;;;;;23.03;21.83;;;;;;;;;;5037630;28;20764;-91
2021/09/18 15:14:59;;;;;;;25.40;24.10;;;;;;;;;;5037816;28;20866;-90
2021/09/18 15:17:27;;;;;;;20.83;19.83;;;;;;;;;;5037540;28;20792;-90
2021/09/18 15:19:55;;;;;;;20.13;19.13;;;;;;;;;;5037187;28;20940;-91
2021/09/18 15:22:24;;;;;;;19.60;18.70;;;;;;;;;;5037304;28;20493;-91
2021/09/18 15:24:51;;;;;;;19.93;18.90;;;;;;;;;;5037478;28;20459;-90
2021/09/18 15:27:18;;;;;;;19.80;18.80;;;;;;;;;;5037261;28;20482;-90
2021/09/18 15:29:46;;;;;;;19.83;18.83;;;;;;;;;;5037493;28;20435;-90
2021/09/18 15:32:13;;;;;;;19.70;18.70;;;;;;;;;;5037498;28;20475;-90
2021/09/18 15:34:40;;;;;;;20.13;18.93;;;;;;;;;;5037935;28;20514;-90
2021/09/18 15:37:08;;;;;;;19.10;17.93;;;;;;;;;;5037715;28;20451;-90
2021/09/18 15:39:39;;;;;;;19.23;18.23;;;;;;;;;;5037002;28;20488;-90
2021/09/18 15:42:06;;;;;;;18.60;17.60;;;;;;;;;;5036824;28;20456;-90
2021/09/18 15:44:34;;;;;;;18.23;17.33;;;;;;;;;;5037066;28;20820;-89
2021/09/18 15:47:01;;;;;;;18.53;17.53;;;;;;;;;;5036936;28;20439;-91
2021/09/18 15:49:29;;;;;;;19.00;18.10;;;;;;;;;;5037270;28;20421;-90
2021/09/18 15:51:56;;;;;;;18.10;17.20;;;;;;;;;;5037035;28;20776;-91
2021/09/18 15:54:24;;;;;;;20.90;18.90;;;;;;;;;;5036927;28;20404;-91
2021/09/18 15:56:53;;;;;;;19.50;18.40;;;;;;;;;;5036917;28;20438;-90
2021/09/18 15:59:20;;;;;;;19.00;18.00;;;;;;;;;;5036892;28;20419;-90
2021/09/18 16:01:48;;;;;;;18.23;17.20;;;;;;;;;;5019391;28;20481;-91
2021/09/18 16:04:15;;;;;;;21.60;20.30;;;;;;;;;;5018696;28;20868;-90
2021/09/18 16:06:43;;;;;;;72.53;59.50;;;;;;;;;;5036577;28;20440;-90
2021/09/18 16:09:10;;;;;;;34.37;31.33;;;;;;;;;;5036978;28;20453;-90
2021/09/18 16:11:37;;;;;;;21.33;20.13;;;;;;;;;;5036628;28;20449;-90
2021/09/18 16:14:06;;;;;;;19.03;18.03;;;;;;;;;;5036708;28;20467;-90
2021/09/18 16:16:34;;;;;;;19.50;18.40;;;;;;;;;;5036630;28;20436;-91
2021/09/18 16:19:01;;;;;;;18.60;17.60;;;;;;;;;;5036415;28;20446;-91
2021/09/18 16:21:29;;;;;;;20.13;18.27;;;;;;;;;;5036697;28;20443;-94
2021/09/18 16:23:56;;;;;;;18.30;17.30;;;;;;;;;;5036430;28;20503;-95
2021/09/18 16:26:24;;;;;;;18.87;17.87;;;;;;;;;;5036241;28;20458;-93
2021/09/18 16:28:51;;;;;;;18.20;17.30;;;;;;;;;;5019293;28;20450;-90
2021/09/18 16:31:20;;;;;;;18.60;17.60;;;;;;;;;;5036971;28;20459;-90
2021/09/18 16:33:47;;;;;;;18.40;17.50;;;;;;;;;;5035931;28;20468;-90
2021/09/18 16:36:15;;;;;;;19.13;18.13;;;;;;;;;;5035710;28;20813;-93
2021/09/18 16:38:42;;;;;;;19.23;18.23;;;;;;;;;;5035952;28;20760;-93
2021/09/18 16:41:10;;;;;;;21.30;20.10;;;;;;;;;;5035770;28;20438;-90
2021/09/18 16:43:37;;;;;;;19.77;18.67;;;;;;;;;;5018552;28;21005;-90
2021/09/18 16:46:05;;;;;;;20.03;19.03;;;;;;;;;;5029192;28;20494;-89
2021/09/18 16:48:34;;;;;;;19.40;18.30;;;;;;;;;;5029308;28;20457;-93
2021/09/18 16:51:01;;;;;;;18.57;17.67;;;;;;;;;;5028103;28;20439;-94
2021/09/18 16:53:29;;;;;;;18.83;17.70;;;;;;;;;;5027795;28;20454;-95
2021/09/18 16:55:56;;;;;;;18.93;17.83;;;;;;;;;;5027199;28;20440;-90
2021/09/18 16:58:24;;;;;;;19.70;18.07;;;;;;;;;;5028282;28;20452;-91
2021/09/18 17:00:51;;;;;;;20.40;19.40;;;;;;;;;;5027451;28;20533;-94
2021/09/18 17:03:19;;;;;;;19.27;18.17;;;;;;;;;;5027670;28;20891;-94
2021/09/18 17:05:48;;;;;;;18.90;17.90;;;;;;;;;;5028053;28;20470;-95
2021/09/18 17:08:16;;;;;;;19.30;18.20;;;;;;;;;;5027331;28;20455;-93
2021/09/18 17:10:43;;;;;;;19.83;18.70;;;;;;;;;;5028824;28;20515;-94
2021/09/18 17:13:13;;;;;;;19.97;18.17;;;;;;;;;;5009899;28;20837;-94
2021/09/18 17:15:40;;;;;;;19.30;18.30;;;;;;;;;;5024329;28;20472;-94
2021/09/18 17:18:08;;;;;;;19.90;18.60;;;;;;;;;;5025561;28;20453;-94
2021/09/18 17:20:35;;;;;;;20.20;18.63;;;;;;;;;;5028186;28;20480;-94
2021/09/18 17:23:04;;;;;;;18.20;17.30;;;;;;;;;;5026127;28;20542;-95
2021/09/18 17:25:32;;;;;;;18.30;17.40;;;;;;;;;;5025246;28;21442;-95
2021/09/18 17:27:59;;;;;;;19.30;18.10;;;;;;;;;;5028438;28;20453;-95
2021/09/18 17:30:27;;;;;;;18.93;17.93;;;;;;;;;;5024817;28;20463;-94
2021/09/18 17:32:54;;;;;;;19.90;18.80;;;;;;;;;;5011021;28;20447;-94
2021/09/18 17:35:21;;;;;;;19.80;18.70;;;;;;;;;;5027790;28;20461;-94
2021/09/18 17:37:49;;;;;;;19.63;18.50;;;;;;;;;;5025860;28;20803;-95
2021/09/18 17:40:18;;;;;;;19.73;17.87;;;;;;;;;;5025575;28;20873;-96
2021/09/18 17:42:45;;;;;;;18.80;17.60;;;;;;;;;;5029515;28;20946;-95
2021/09/18 17:45:13;;;;;;;18.87;17.97;;;;;;;;;;5027057;28;20488;-96
2021/09/18 17:47:41;;;;;;;18.80;17.90;;;;;;;;;;5028445;28;20444;-96
2021/09/18 17:50:10;;;;;;;18.83;17.93;;;;;;;;;;5029987;28;20444;-95
2021/09/18 17:52:37;;;;;;;18.90;17.90;;;;;;;;;;5026075;28;20477;-95
2021/09/18 17:55:05;;;;;;;18.73;17.83;;;;;;;;;;5023813;28;20432;-94
2021/09/18 17:57:34;;;;;;;18.20;17.30;;;;;;;;;;5027619;28;20469;-96
2021/09/18 18:00:03;;;;;;;18.53;17.53;;;;;;;;;;5028409;28;20460;-96
2021/09/18 18:02:32;;;;;;;18.77;17.80;;;;;;;;;;5027331;28;21382;-95
2021/09/18 18:05:00;;;;;;;18.63;17.40;;;;;;;;;;5025974;28;20495;-96
2021/09/18 18:07:27;;;;;;;18.47;17.50;;;;;;;;;;5026561;28;20479;-95
2021/09/18 18:09:55;;;;;;;19.40;18.20;;;;;;;;;;5009247;28;20438;-94
2021/09/18 18:12:22;;;;;;;18.47;17.57;;;;;;;;;;5009548;28;20418;-96
2021/09/18 18:14:51;;;;;;;22.30;21.10;;;;;;;;;;5028294;28;20439;-95
2021/09/18 18:17:19;;;;;;;19.37;18.17;;;;;;;;;;5027405;28;20459;-95
2021/09/18 18:19:47;;;;;;;18.87;17.70;;;;;;;;;;5009151;28;20945;-95
2021/09/18 18:22:14;;;;;;;19.40;18.40;;;;;;;;;;5025545;28;20496;-95
2021/09/18 18:24:42;;;;;;;18.57;17.67;;;;;;;;;;5025389;28;20600;-95
2021/09/18 18:27:09;;;;;;;19.80;18.80;;;;;;;;;;5029012;28;20835;-95
2021/09/18 18:29:38;;;;;;;19.23;18.23;;;;;;;;;;5034320;28;20470;-95
2021/09/18 18:32:11;;;;;;;18.80;17.90;;;;;;;;;;5030686;28;20472;-94
2021/09/18 18:34:38;;;;;;;18.60;17.60;;;;;;;;;;5035784;28;20440;-96
2021/09/18 18:37:06;;;;;;;19.43;18.43;;;;;;;;;;5032439;28;20830;-96
2021/09/18 18:39:33;;;;;;;19.70;18.60;;;;;;;;;;5031919;28;20483;-95
2021/09/18 18:42:01;;;;;;;19.47;18.50;;;;;;;;;;5034846;28;20435;-94
2021/09/18 18:44:28;;;;;;;18.70;17.80;;;;;;;;;;5014384;28;20492;-94
2021/09/18 18:46:55;;;;;;;18.73;17.83;;;;;;;;;;5031108;28;20460;-95
2021/09/18 18:49:24;;;;;;;18.87;17.87;;;;;;;;;;5032700;28;20435;-95
2021/09/18 18:51:53;;;;;;;20.40;19.20;;;;;;;;;;5032003;28;20454;-96
2021/09/18 18:54:20;;;;;;;20.00;18.80;;;;;;;;;;5033161;28;20447;-95
2021/09/18 18:56:49;;;;;;;20.00;19.00;;;;;;;;;;5034154;28;20792;-95
2021/09/18 18:59:19;;;;;;;19.30;18.40;;;;;;;;;;5035998;28;20462;-95
2021/09/18 19:01:46;;;;;;;18.50;17.60;;;;;;;;;;5031756;28;20461;-94
2021/09/18 19:04:14;;;;;;;18.57;17.57;;;;;;;;;;5015813;28;20453;-94
2021/09/18 19:06:43;;;;;;;18.60;17.60;;;;;;;;;;5016359;28;20488;-96
2021/09/18 19:09:10;;;;;;;18.30;17.40;;;;;;;;;;5032213;28;20448;-94
2021/09/18 19:11:38;;;;;;;18.70;17.70;;;;;;;;;;5029686;28;20474;-95
2021/09/18 19:14:05;;;;;;;19.57;18.57;;;;;;;;;;5015208;28;20431;-94
2021/09/18 19:16:33;;;;;;;19.10;17.90;;;;;;;;;;5032758;28;20454;-95
2021/09/18 19:19:00;;;;;;;19.67;18.67;;;;;;;;;;5032417;28;20455;-96
2021/09/18 19:21:28;;;;;;;19.73;18.57;;;;;;;;;;5030325;28;20472;-96
2021/09/18 19:23:57;;;;;;;19.50;18.50;;;;;;;;;;5031009;28;20477;-94
2021/09/18 19:26:24;;;;;;;19.23;18.20;;;;;;;;;;5030021;28;20870;-95
2021/09/18 19:28:52;;;;;;;20.03;19.03;;;;;;;;;;5030357;28;20451;-95
2021/09/18 19:31:20;;;;;;;19.90;18.90;;;;;;;;;;5030510;28;21079;-96
2021/09/18 19:33:48;;;;;;;19.83;18.73;;;;;;;;;;5034539;28;20445;-95
2021/09/18 19:36:15;;;;;;;20.97;19.73;;;;;;;;;;5032073;28;20434;-96
2021/09/18 19:38:43;;;;;;;20.33;19.33;;;;;;;;;;5033440;28;20454;-95
2021/09/18 19:41:12;;;;;;;20.30;19.20;;;;;;;;;;5013968;28;20424;-96
2021/09/18 19:43:40;;;;;;;19.47;18.50;;;;;;;;;;5028215;28;20425;-96
2021/09/18 19:46:07;;;;;;;20.50;19.40;;;;;;;;;;5030805;28;20495;-96
2021/09/18 19:48:35;;;;;;;20.30;19.20;;;;;;;;;;5030495;28;20419;-95
2021/09/18 19:51:02;;;;;;;19.90;18.70;;;;;;;;;;5029730;28;20464;-95
2021/09/18 19:53:30;;;;;;;19.80;18.90;;;;;;;;;;5029152;28;20456;-96
2021/09/18 19:55:57;;;;;;;19.93;18.93;;;;;;;;;;5028064;28;20458;-95
2021/09/18 19:58:26;;;;;;;20.10;19.00;;;;;;;;;;5011597;28;20452;-95